createdAt,value
2022-10-23T00:01:05.070Z,42
2022-10-23T00:16:05.303Z,36
2022-10-23T00:31:04.677Z,39
2022-10-23T00:46:04.716Z,36
2022-10-23T01:01:04.974Z,36
2022-10-23T01:16:05.336Z,36
2022-10-23T01:31:05.062Z,38
2022-10-23T01:46:04.955Z,38
2022-10-23T02:01:05.016Z,38
2022-10-23T02:16:05.505Z,39
2022-10-23T02:31:05.605Z,38
2022-10-23T02:46:04.304Z,36
2022-10-23T03:01:05.131Z,35
2022-10-23T03:16:04.981Z,34
2022-10-23T03:31:05.351Z,32
2022-10-23T03:46:05.239Z,31
2022-10-23T04:01:05.261Z,32
2022-10-23T04:16:05.423Z,33
2022-10-23T04:31:05.459Z,30
2022-10-23T04:46:05.399Z,32
2022-10-23T05:01:05.571Z,32
2022-10-23T05:16:04.627Z,37
2022-10-23T05:31:04.559Z,34
2022-10-23T05:46:04.667Z,38
2022-10-23T06:01:05.416Z,40
2022-10-23T06:16:08.435Z,42
2022-10-23T06:31:04.964Z,43
2022-10-23T06:46:04.862Z,44
2022-10-23T07:01:04.915Z,43
2022-10-23T07:16:05.488Z,44
2022-10-23T07:31:05.332Z,43
2022-10-23T07:46:05.453Z,47
2022-10-23T08:01:04.858Z,51
2022-10-23T08:16:04.738Z,37
2022-10-23T08:31:05.174Z,34
2022-10-23T08:46:06.183Z,38
2022-10-23T09:01:05.619Z,38
2022-10-23T09:16:05.484Z,39
2022-10-23T09:31:04.607Z,32
2022-10-23T09:46:05.454Z,28
2022-10-23T10:01:05.316Z,22
2022-10-23T10:16:04.961Z,20
2022-10-23T10:31:05.596Z,17
2022-10-23T10:46:05.680Z,16
2022-10-23T11:01:05.526Z,11
2022-10-23T11:16:04.558Z,12
2022-10-23T11:31:09.506Z,12
2022-10-23T11:46:05.260Z,13
2022-10-23T12:01:05.272Z,13
2022-10-23T12:16:04.823Z,13
2022-10-23T12:31:05.355Z,11
2022-10-23T12:46:05.443Z,8
2022-10-23T13:01:05.492Z,8
2022-10-23T13:16:05.357Z,6
2022-10-23T13:31:04.651Z,7
2022-10-23T13:46:05.421Z,10
2022-10-23T14:01:05.324Z,7
2022-10-23T14:16:05.005Z,6
2022-10-23T14:31:05.632Z,8
2022-10-23T14:46:05.219Z,8
2022-10-23T15:01:05.376Z,10
2022-10-23T15:16:05.807Z,15
2022-10-23T15:31:05.101Z,11
2022-10-23T15:46:04.941Z,14
2022-10-23T16:01:05.222Z,14
2022-10-23T16:16:05.157Z,42
2022-10-23T16:31:05.170Z,39
2022-10-23T16:46:04.846Z,45
2022-10-23T17:01:04.823Z,31
2022-10-23T17:16:05.258Z,31
2022-10-23T17:31:05.311Z,27
2022-10-23T17:46:04.715Z,18
2022-10-23T18:01:04.678Z,30
2022-10-23T18:16:05.186Z,13
2022-10-23T18:31:04.691Z,15
2022-10-23T18:46:04.657Z,16
2022-10-23T19:01:04.765Z,17
2022-10-23T19:16:04.677Z,20
2022-10-23T19:31:04.977Z,25
2022-10-23T19:46:07.676Z,25
2022-10-23T20:01:05.743Z,26
2022-10-23T20:16:05.114Z,23
2022-10-23T20:31:05.247Z,24
2022-10-23T20:46:04.866Z,27
2022-10-23T21:01:05.190Z,26
2022-10-23T21:16:05.322Z,28
2022-10-23T21:31:05.411Z,26
2022-10-23T21:46:05.720Z,28
2022-10-23T22:01:05.318Z,32
2022-10-23T22:16:05.119Z,27
2022-10-23T22:31:04.871Z,29
2022-10-23T22:46:05.149Z,31
2022-10-23T23:01:05.083Z,33
2022-10-23T23:16:05.561Z,35
2022-10-23T23:31:04.748Z,36
2022-10-23T23:46:04.792Z,34
